CYJT

Stephenville Airport

Stephenville, Canada
TAF CYJT 181138Z 1812/1912 27020G30KT P6SM -SHSN BKN030 TEMPO 1812/1818 4SM -SHSN OVC020 PROB30 1812/1818 11/2SM -SHSN FM181800 30015G25KT P6SM BKN030 TEMPO 1818/1902 4SM -SHSN FM190200 26015G25KT 4SM -SHSN BKN020 BKN040 RMK NXT FCST BY 181800Z
Issued Valid From Valid To
Nov-18 @ 11:38 UTC
(5 hours ago)
Nov-18 @ 12:00 UTC
(4 hours ago)
Nov-19 @ 12:00 UTC
(in 20 hours)
Nov-18 @ 12:00 to Nov-18 @ 18:00
TAF CYJT 181138Z 1812/1912 27020G30KT P6SM -SHSN BKN030
Wind Visibility Clouds Conditions
270° at 20 knots
 Gusting to 30 knots
Greater than 6 miles
  • Broken at 3,000' AGL
  • Light Snow
Probable  (Probability 30%) Nov-18 @ 12:00 to Nov-18 @ 18:00
PROB30 1812/1818 11/2SM -SHSN
Visibility Conditions
1 1/2 miles
  • Light Snow
Temporary Nov-18 @ 12:00 to Nov-18 @ 18:00
TEMPO 1812/1818 4SM -SHSN OVC020
Visibility Clouds Conditions
4 miles
  • Overcast at 2,000' AGL
  • Light Snow
Temporary Nov-18 @ 18:00 to Nov-19 @ 02:00
TEMPO 1818/1902 4SM -SHSN
Visibility Conditions
4 miles
  • Light Snow
From Nov-18 @ 18:00 to Nov-19 @ 02:00
FM181800 30015G25KT P6SM BKN030
Wind Visibility Clouds
300° at 15 knots
 Gusting to 25 knots
Greater than 6 miles
  • Broken at 3,000' AGL
From Nov-19 @ 02:00 to Nov-19 @ 12:00
FM190200 26015G25KT 4SM -SHSN BKN020 BKN040 RMK NXT FCST BY 181800Z
Wind Visibility Clouds Conditions
260° at 15 knots
 Gusting to 25 knots
4 miles
  • Broken at 2,000' AGL
  • Broken at 4,000' AGL
  • Light Snow
TAF CYJT 181138Z 1812/1912 27020G30KT P6SM -SHSN BKN030 TEMPO 1812/1818 4SM -SHSN OVC020 PROB30 1812/1818 11/2SM -SHSN FM181800 30015G25KT P6SM BKN030 TEMPO 1818/1902 4SM -SHSN FM190200 26015G25KT 4SM -SHSN BKN020 BKN040 RMK NXT FCST BY 181800Z
Issued Nov-18 @ 11:38 UTC
(5 hours ago)
Valid From Nov-18 @ 12:00 UTC
(4 hours ago)
Valid To Nov-19 @ 12:00 UTC
(in 20 hours)
Nov-18 @ 12:00 - Nov-18 @ 18:00
Wind Visibility
270° at 20 knots
 Gusting to 30 knots
Greater than 6 miles
Clouds
  • Broken at 3,000' AGL
Conditions
  • Light Snow
Probability 30% Probable Nov-18 @ 12:00 - Nov-18 @ 18:00
Conditions
  • Light Snow
Temporary Nov-18 @ 12:00 - Nov-18 @ 18:00
Clouds
  • Overcast at 2,000' AGL
Conditions
  • Light Snow
Temporary Nov-18 @ 18:00 - Nov-19 @ 02:00
Conditions
  • Light Snow
From Nov-18 @ 18:00 - Nov-19 @ 02:00
Wind Visibility
300° at 15 knots
 Gusting to 25 knots
Greater than 6 miles
Clouds
  • Broken at 3,000' AGL
From Nov-19 @ 02:00 - Nov-19 @ 12:00
Wind Visibility
260° at 15 knots
 Gusting to 25 knots
4 miles
Clouds
  • Broken at 2,000' AGL
  • Broken at 4,000' AGL
Conditions
  • Light Snow